sensor_id;sensor_type;location;lat;lon;timestamp;temperature;humidity
33741;DHT22;20065;48.380;10.892;2022-11-06T00:02:34;6.30;99.90
33741;DHT22;20065;48.380;10.892;2022-11-06T00:05:21;6.30;99.90
33741;DHT22;20065;48.380;10.892;2022-11-06T00:08:32;6.30;99.90
33741;DHT22;20065;48.380;10.892;2022-11-06T00:11:18;6.30;99.90
33741;DHT22;20065;48.380;10.892;2022-11-06T00:14:05;6.20;99.90
33741;DHT22;20065;48.380;10.892;2022-11-06T00:16:51;6.10;99.90
33741;DHT22;20065;48.380;10.892;2022-11-06T00:19:37;6.20;99.90
33741;DHT22;20065;48.380;10.892;2022-11-06T00:22:23;6.10;99.90
33741;DHT22;20065;48.380;10.892;2022-11-06T00:25:10;6.10;99.90
33741;DHT22;20065;48.380;10.892;2022-11-06T00:27:56;6.10;99.90
33741;DHT22;20065;48.380;10.892;2022-11-06T00:30:42;6.10;99.90
33741;DHT22;20065;48.380;10.892;2022-11-06T00:33:29;6.00;99.90
33741;DHT22;20065;48.380;10.892;2022-11-06T00:36:18;6.10;99.90
33741;DHT22;20065;48.380;10.892;2022-11-06T00:39:06;6.00;99.90
33741;DHT22;20065;48.380;10.892;2022-11-06T00:41:52;6.00;99.90
33741;DHT22;20065;48.380;10.892;2022-11-06T00:44:38;6.00;99.90
33741;DHT22;20065;48.380;10.892;2022-11-06T00:47:24;6.00;99.90
33741;DHT22;20065;48.380;10.892;2022-11-06T00:50:10;5.90;99.90
33741;DHT22;20065;48.380;10.892;2022-11-06T00:52:56;5.90;99.90
33741;DHT22;20065;48.380;10.892;2022-11-06T00:55:42;5.90;99.90
33741;DHT22;20065;48.380;10.892;2022-11-06T00:58:29;5.90;99.90
33741;DHT22;20065;48.380;10.892;2022-11-06T01:01:18;5.90;99.90
33741;DHT22;20065;48.380;10.892;2022-11-06T01:04:08;5.90;99.90
33741;DHT22;20065;48.380;10.892;2022-11-06T01:06:55;5.90;99.90
33741;DHT22;20065;48.380;10.892;2022-11-06T01:09:41;5.80;99.90
33741;DHT22;20065;48.380;10.892;2022-11-06T01:12:33;5.80;99.90
33741;DHT22;20065;48.380;10.892;2022-11-06T01:15:19;5.80;99.90
33741;DHT22;20065;48.380;10.892;2022-11-06T01:18:05;5.70;99.90
33741;DHT22;20065;48.380;10.892;2022-11-06T01:20:52;5.70;99.90
33741;DHT22;20065;48.380;10.892;2022-11-06T01:23:38;5.70;99.90
33741;DHT22;20065;48.380;10.892;2022-11-06T01:26:25;5.70;99.90
33741;DHT22;20065;48.380;10.892;2022-11-06T01:29:14;5.70;99.90
33741;DHT22;20065;48.380;10.892;2022-11-06T01:32:00;5.70;99.90
33741;DHT22;20065;48.380;10.892;2022-11-06T01:34:49;5.60;99.90
33741;DHT22;20065;48.380;10.892;2022-11-06T01:37:35;5.60;99.90
33741;DHT22;20065;48.380;10.892;2022-11-06T01:40:21;5.60;99.90
33741;DHT22;20065;48.380;10.892;2022-11-06T01:43:41;5.60;99.90
33741;DHT22;20065;48.380;10.892;2022-11-06T01:46:32;5.60;99.90
33741;DHT22;20065;48.380;10.892;2022-11-06T01:49:19;5.60;99.90
33741;DHT22;20065;48.380;10.892;2022-11-06T01:52:08;5.60;99.90
33741;DHT22;20065;48.380;10.892;2022-11-06T01:55:01;5.60;99.90
33741;DHT22;20065;48.380;10.892;2022-11-06T01:57:51;5.60;99.90
33741;DHT22;20065;48.380;10.892;2022-11-06T02:00:38;5.70;99.90
33741;DHT22;20065;48.380;10.892;2022-11-06T02:03:25;5.70;99.90
33741;DHT22;20065;48.380;10.892;2022-11-06T02:06:11;5.70;99.90
33741;DHT22;20065;48.380;10.892;2022-11-06T02:08:58;5.60;99.90
33741;DHT22;20065;48.380;10.892;2022-11-06T02:11:50;5.50;99.90
33741;DHT22;20065;48.380;10.892;2022-11-06T02:18:20;5.50;99.90
33741;DHT22;20065;48.380;10.892;2022-11-06T02:25:14;5.40;99.90
33741;DHT22;20065;48.380;10.892;2022-11-06T02:27:57;5.40;99.90
33741;DHT22;20065;48.380;10.892;2022-11-06T02:30:49;5.30;99.90
33741;DHT22;20065;48.380;10.892;2022-11-06T02:33:41;5.30;99.90
33741;DHT22;20065;48.380;10.892;2022-11-06T02:36:31;5.30;99.90
33741;DHT22;20065;48.380;10.892;2022-11-06T02:39:21;5.20;99.90
33741;DHT22;20065;48.380;10.892;2022-11-06T02:42:10;5.20;99.90
33741;DHT22;20065;48.380;10.892;2022-11-06T02:44:59;5.20;99.90
33741;DHT22;20065;48.380;10.892;2022-11-06T02:47:48;5.20;99.90
33741;DHT22;20065;48.380;10.892;2022-11-06T02:50:40;5.20;99.90
33741;DHT22;20065;48.380;10.892;2022-11-06T02:53:30;5.10;99.90
33741;DHT22;20065;48.380;10.892;2022-11-06T02:56:23;5.10;99.90
33741;DHT22;20065;48.380;10.892;2022-11-06T02:59:17;5.10;99.90
33741;DHT22;20065;48.380;10.892;2022-11-06T03:02:10;5.10;99.90
33741;DHT22;20065;48.380;10.892;2022-11-06T03:05:18;5.10;99.90
33741;DHT22;20065;48.380;10.892;2022-11-06T03:08:25;5.20;99.90
33741;DHT22;20065;48.380;10.892;2022-11-06T03:11:19;5.20;99.90
33741;DHT22;20065;48.380;10.892;2022-11-06T03:20:21;5.20;99.90
33741;DHT22;20065;48.380;10.892;2022-11-06T03:23:36;5.20;99.90
33741;DHT22;20065;48.380;10.892;2022-11-06T03:26:32;5.20;99.90
33741;DHT22;20065;48.380;10.892;2022-11-06T03:29:49;5.10;99.90
33741;DHT22;20065;48.380;10.892;2022-11-06T03:32:56;5.10;99.90
33741;DHT22;20065;48.380;10.892;2022-11-06T03:35:51;5.00;99.90
33741;DHT22;20065;48.380;10.892;2022-11-06T03:38:44;5.00;99.90
33741;DHT22;20065;48.380;10.892;2022-11-06T03:41:41;5.00;99.90
33741;DHT22;20065;48.380;10.892;2022-11-06T03:44:30;4.90;99.90
33741;DHT22;20065;48.380;10.892;2022-11-06T03:47:21;4.90;99.90
33741;DHT22;20065;48.380;10.892;2022-11-06T03:52:59;4.80;99.90
33741;DHT22;20065;48.380;10.892;2022-11-06T03:55:52;4.80;99.90
33741;DHT22;20065;48.380;10.892;2022-11-06T03:58:44;4.80;99.90
33741;DHT22;20065;48.380;10.892;2022-11-06T04:01:35;4.80;99.90
33741;DHT22;20065;48.380;10.892;2022-11-06T04:04:40;4.80;99.90
33741;DHT22;20065;48.380;10.892;2022-11-06T04:07:34;4.80;99.90
33741;DHT22;20065;48.380;10.892;2022-11-06T04:10:21;4.70;99.90
33741;DHT22;20065;48.380;10.892;2022-11-06T04:13:29;4.70;99.90
33741;DHT22;20065;48.380;10.892;2022-11-06T04:16:42;4.70;99.90
33741;DHT22;20065;48.380;10.892;2022-11-06T04:19:30;4.60;99.90
33741;DHT22;20065;48.380;10.892;2022-11-06T04:25:34;4.70;99.90
33741;DHT22;20065;48.380;10.892;2022-11-06T04:32:16;4.60;99.90
33741;DHT22;20065;48.380;10.892;2022-11-06T04:41:50;4.50;99.90
33741;DHT22;20065;48.380;10.892;2022-11-06T04:44:47;4.60;99.90
33741;DHT22;20065;48.380;10.892;2022-11-06T04:47:35;4.60;99.90
33741;DHT22;20065;48.380;10.892;2022-11-06T04:50:22;4.60;99.90
33741;DHT22;20065;48.380;10.892;2022-11-06T04:53:10;4.50;99.90
33741;DHT22;20065;48.380;10.892;2022-11-06T04:56:08;4.50;99.90
33741;DHT22;20065;48.380;10.892;2022-11-06T04:58:55;4.50;99.90
33741;DHT22;20065;48.380;10.892;2022-11-06T05:01:41;4.50;99.90
33741;DHT22;20065;48.380;10.892;2022-11-06T05:04:27;4.50;99.90
33741;DHT22;20065;48.380;10.892;2022-11-06T05:07:14;4.40;99.90
33741;DHT22;20065;48.380;10.892;2022-11-06T05:10:01;4.40;99.90
33741;DHT22;20065;48.380;10.892;2022-11-06T05:12:47;4.40;99.90
33741;DHT22;20065;48.380;10.892;2022-11-06T05:15:33;4.40;99.90
33741;DHT22;20065;48.380;10.892;2022-11-06T05:18:19;4.40;99.90
33741;DHT22;20065;48.380;10.892;2022-11-06T05:21:05;4.40;99.90
33741;DHT22;20065;48.380;10.892;2022-11-06T05:24:10;4.30;99.90
33741;DHT22;20065;48.380;10.892;2022-11-06T05:26:56;4.30;99.90
33741;DHT22;20065;48.380;10.892;2022-11-06T05:29:42;4.20;99.90
33741;DHT22;20065;48.380;10.892;2022-11-06T05:32:29;4.20;99.90
33741;DHT22;20065;48.380;10.892;2022-11-06T05:35:17;4.20;99.90
33741;DHT22;20065;48.380;10.892;2022-11-06T05:38:03;4.20;99.90
33741;DHT22;20065;48.380;10.892;2022-11-06T05:40:49;4.10;99.90
33741;DHT22;20065;48.380;10.892;2022-11-06T05:43:36;4.10;99.90
33741;DHT22;20065;48.380;10.892;2022-11-06T05:46:22;4.10;99.90
33741;DHT22;20065;48.380;10.892;2022-11-06T05:49:08;4.10;99.90
33741;DHT22;20065;48.380;10.892;2022-11-06T05:51:54;4.10;99.90
33741;DHT22;20065;48.380;10.892;2022-11-06T05:54:41;4.10;99.90
33741;DHT22;20065;48.380;10.892;2022-11-06T05:57:27;4.00;99.90
33741;DHT22;20065;48.380;10.892;2022-11-06T06:00:14;4.00;99.90
33741;DHT22;20065;48.380;10.892;2022-11-06T06:03:01;4.10;99.90
33741;DHT22;20065;48.380;10.892;2022-11-06T06:05:47;4.10;99.90
33741;DHT22;20065;48.380;10.892;2022-11-06T06:08:34;4.00;99.90
33741;DHT22;20065;48.380;10.892;2022-11-06T06:11:20;4.10;99.90
33741;DHT22;20065;48.380;10.892;2022-11-06T06:14:06;4.10;99.90
33741;DHT22;20065;48.380;10.892;2022-11-06T06:16:52;4.00;99.90
33741;DHT22;20065;48.380;10.892;2022-11-06T06:19:38;4.00;99.90
33741;DHT22;20065;48.380;10.892;2022-11-06T06:22:24;4.00;99.90
33741;DHT22;20065;48.380;10.892;2022-11-06T06:25:10;3.90;99.90
33741;DHT22;20065;48.380;10.892;2022-11-06T06:27:57;3.90;99.90
33741;DHT22;20065;48.380;10.892;2022-11-06T06:30:43;3.90;99.90
33741;DHT22;20065;48.380;10.892;2022-11-06T06:33:29;3.90;99.90
33741;DHT22;20065;48.380;10.892;2022-11-06T06:36:16;3.90;99.90
33741;DHT22;20065;48.380;10.892;2022-11-06T06:39:02;3.90;99.90
33741;DHT22;20065;48.380;10.892;2022-11-06T06:41:48;3.90;99.90
33741;DHT22;20065;48.380;10.892;2022-11-06T06:44:34;4.00;99.90
33741;DHT22;20065;48.380;10.892;2022-11-06T06:47:21;3.90;99.90
33741;DHT22;20065;48.380;10.892;2022-11-06T06:50:07;3.90;99.90
33741;DHT22;20065;48.380;10.892;2022-11-06T06:52:57;3.80;99.90
33741;DHT22;20065;48.380;10.892;2022-11-06T06:55:44;3.90;99.90
33741;DHT22;20065;48.380;10.892;2022-11-06T06:58:30;3.90;99.90
33741;DHT22;20065;48.380;10.892;2022-11-06T07:01:16;3.90;99.90
33741;DHT22;20065;48.380;10.892;2022-11-06T07:04:03;3.90;99.90
33741;DHT22;20065;48.380;10.892;2022-11-06T07:06:51;3.90;99.90
33741;DHT22;20065;48.380;10.892;2022-11-06T07:09:38;3.90;99.90
33741;DHT22;20065;48.380;10.892;2022-11-06T07:12:24;4.00;99.90
33741;DHT22;20065;48.380;10.892;2022-11-06T07:15:10;4.00;99.90
33741;DHT22;20065;48.380;10.892;2022-11-06T07:18:01;4.00;99.90
33741;DHT22;20065;48.380;10.892;2022-11-06T07:20:48;4.10;99.90
33741;DHT22;20065;48.380;10.892;2022-11-06T07:23:34;4.10;99.90
33741;DHT22;20065;48.380;10.892;2022-11-06T07:26:21;4.20;99.90
33741;DHT22;20065;48.380;10.892;2022-11-06T07:29:07;4.40;99.90
33741;DHT22;20065;48.380;10.892;2022-11-06T07:31:53;4.40;99.90
33741;DHT22;20065;48.380;10.892;2022-11-06T07:34:40;4.40;99.90
33741;DHT22;20065;48.380;10.892;2022-11-06T07:37:26;4.40;99.90
33741;DHT22;20065;48.380;10.892;2022-11-06T07:40:12;4.40;99.90
33741;DHT22;20065;48.380;10.892;2022-11-06T07:43:07;4.50;99.90
33741;DHT22;20065;48.380;10.892;2022-11-06T07:45:58;4.70;99.90
33741;DHT22;20065;48.380;10.892;2022-11-06T07:48:45;4.80;99.90
33741;DHT22;20065;48.380;10.892;2022-11-06T07:51:31;4.90;99.90
33741;DHT22;20065;48.380;10.892;2022-11-06T07:54:17;5.00;99.90
33741;DHT22;20065;48.380;10.892;2022-11-06T07:57:03;5.00;99.90
33741;DHT22;20065;48.380;10.892;2022-11-06T07:59:50;5.10;99.90
33741;DHT22;20065;48.380;10.892;2022-11-06T08:02:36;5.20;99.90
33741;DHT22;20065;48.380;10.892;2022-11-06T08:05:22;5.30;99.90
33741;DHT22;20065;48.380;10.892;2022-11-06T08:08:10;5.40;99.90
33741;DHT22;20065;48.380;10.892;2022-11-06T08:11:02;5.50;99.90
33741;DHT22;20065;48.380;10.892;2022-11-06T08:13:48;5.40;99.90
33741;DHT22;20065;48.380;10.892;2022-11-06T08:16:34;5.40;99.90
33741;DHT22;20065;48.380;10.892;2022-11-06T08:19:20;5.40;99.90
33741;DHT22;20065;48.380;10.892;2022-11-06T08:22:06;5.30;99.90
33741;DHT22;20065;48.380;10.892;2022-11-06T08:24:54;5.40;99.90
33741;DHT22;20065;48.380;10.892;2022-11-06T08:27:40;5.50;99.90
33741;DHT22;20065;48.380;10.892;2022-11-06T08:30:27;5.60;99.90
33741;DHT22;20065;48.380;10.892;2022-11-06T08:33:13;5.50;99.90
33741;DHT22;20065;48.380;10.892;2022-11-06T08:36:01;5.40;99.90
33741;DHT22;20065;48.380;10.892;2022-11-06T08:38:48;5.40;99.90
33741;DHT22;20065;48.380;10.892;2022-11-06T08:41:34;5.50;99.90
33741;DHT22;20065;48.380;10.892;2022-11-06T08:44:22;5.40;99.90
33741;DHT22;20065;48.380;10.892;2022-11-06T08:47:09;5.40;99.90
33741;DHT22;20065;48.380;10.892;2022-11-06T08:49:55;5.50;99.90
33741;DHT22;20065;48.380;10.892;2022-11-06T08:52:41;5.50;99.90
33741;DHT22;20065;48.380;10.892;2022-11-06T08:55:27;5.40;99.90
33741;DHT22;20065;48.380;10.892;2022-11-06T08:58:15;5.50;99.90
33741;DHT22;20065;48.380;10.892;2022-11-06T09:01:01;5.60;99.90
33741;DHT22;20065;48.380;10.892;2022-11-06T09:03:47;5.70;99.90
33741;DHT22;20065;48.380;10.892;2022-11-06T09:06:33;5.80;99.90
33741;DHT22;20065;48.380;10.892;2022-11-06T09:09:20;5.90;99.90
33741;DHT22;20065;48.380;10.892;2022-11-06T09:12:06;6.00;99.90
33741;DHT22;20065;48.380;10.892;2022-11-06T09:14:52;6.10;99.90
33741;DHT22;20065;48.380;10.892;2022-11-06T09:17:47;6.20;99.90
33741;DHT22;20065;48.380;10.892;2022-11-06T09:20:34;6.50;99.90
33741;DHT22;20065;48.380;10.892;2022-11-06T09:23:20;6.80;99.90
33741;DHT22;20065;48.380;10.892;2022-11-06T09:26:06;7.00;99.90
33741;DHT22;20065;48.380;10.892;2022-11-06T09:28:52;7.10;99.90
33741;DHT22;20065;48.380;10.892;2022-11-06T09:31:39;7.20;99.90
33741;DHT22;20065;48.380;10.892;2022-11-06T09:34:25;7.40;99.90
33741;DHT22;20065;48.380;10.892;2022-11-06T09:37:11;7.50;99.90
33741;DHT22;20065;48.380;10.892;2022-11-06T09:39:57;7.70;99.90
33741;DHT22;20065;48.380;10.892;2022-11-06T09:42:55;7.90;99.90
33741;DHT22;20065;48.380;10.892;2022-11-06T09:45:44;7.90;99.90
33741;DHT22;20065;48.380;10.892;2022-11-06T09:48:38;8.10;99.90
33741;DHT22;20065;48.380;10.892;2022-11-06T09:51:40;8.30;99.90
33741;DHT22;20065;48.380;10.892;2022-11-06T09:54:42;8.40;99.90
33741;DHT22;20065;48.380;10.892;2022-11-06T09:57:56;8.60;99.90
33741;DHT22;20065;48.380;10.892;2022-11-06T10:00:44;8.80;99.90
33741;DHT22;20065;48.380;10.892;2022-11-06T10:03:51;8.70;99.90
33741;DHT22;20065;48.380;10.892;2022-11-06T10:06:39;8.70;99.90
33741;DHT22;20065;48.380;10.892;2022-11-06T10:09:26;8.70;99.90
33741;DHT22;20065;48.380;10.892;2022-11-06T10:12:45;8.70;99.90
33741;DHT22;20065;48.380;10.892;2022-11-06T10:19:06;8.50;99.90
33741;DHT22;20065;48.380;10.892;2022-11-06T10:22:15;8.60;99.90
33741;DHT22;20065;48.380;10.892;2022-11-06T10:25:20;8.60;99.90
33741;DHT22;20065;48.380;10.892;2022-11-06T10:35:35;9.40;99.90
33741;DHT22;20065;48.380;10.892;2022-11-06T10:38:37;9.60;99.90
33741;DHT22;20065;48.380;10.892;2022-11-06T10:41:27;9.20;99.90
33741;DHT22;20065;48.380;10.892;2022-11-06T10:44:48;8.90;99.90
33741;DHT22;20065;48.380;10.892;2022-11-06T10:47:42;9.10;99.90
33741;DHT22;20065;48.380;10.892;2022-11-06T10:50:44;9.50;99.90
33741;DHT22;20065;48.380;10.892;2022-11-06T10:53:52;9.90;99.90
33741;DHT22;20065;48.380;10.892;2022-11-06T10:59:32;10.10;99.90
33741;DHT22;20065;48.380;10.892;2022-11-06T11:02:33;10.20;99.90
33741;DHT22;20065;48.380;10.892;2022-11-06T11:05:22;10.30;99.90
33741;DHT22;20065;48.380;10.892;2022-11-06T11:11:25;10.50;99.90
33741;DHT22;20065;48.380;10.892;2022-11-06T11:14:13;10.40;99.90
33741;DHT22;20065;48.380;10.892;2022-11-06T11:17:00;10.40;99.90
33741;DHT22;20065;48.380;10.892;2022-11-06T11:19:52;10.20;99.90
33741;DHT22;20065;48.380;10.892;2022-11-06T11:22:38;10.40;99.90
33741;DHT22;20065;48.380;10.892;2022-11-06T11:25:25;10.80;99.90
33741;DHT22;20065;48.380;10.892;2022-11-06T11:28:34;11.10;99.90
33741;DHT22;20065;48.380;10.892;2022-11-06T11:31:28;11.30;99.90
33741;DHT22;20065;48.380;10.892;2022-11-06T11:34:19;11.20;99.90
33741;DHT22;20065;48.380;10.892;2022-11-06T11:37:25;10.80;99.90
33741;DHT22;20065;48.380;10.892;2022-11-06T11:40:35;10.60;99.90
33741;DHT22;20065;48.380;10.892;2022-11-06T11:48:56;11.00;99.90
33741;DHT22;20065;48.380;10.892;2022-11-06T11:51:45;11.20;99.90
33741;DHT22;20065;48.380;10.892;2022-11-06T11:54:33;11.10;99.90
33741;DHT22;20065;48.380;10.892;2022-11-06T11:57:23;11.00;99.90
33741;DHT22;20065;48.380;10.892;2022-11-06T12:00:18;11.00;99.90
33741;DHT22;20065;48.380;10.892;2022-11-06T12:03:09;11.10;99.90
33741;DHT22;20065;48.380;10.892;2022-11-06T12:06:06;11.20;99.90
33741;DHT22;20065;48.380;10.892;2022-11-06T12:08:54;11.20;99.90
33741;DHT22;20065;48.380;10.892;2022-11-06T12:11:42;11.30;99.90
33741;DHT22;20065;48.380;10.892;2022-11-06T12:17:19;11.20;99.90
33741;DHT22;20065;48.380;10.892;2022-11-06T12:20:13;11.10;99.90
33741;DHT22;20065;48.380;10.892;2022-11-06T12:23:02;11.00;99.90
33741;DHT22;20065;48.380;10.892;2022-11-06T12:26:08;11.20;99.90
33741;DHT22;20065;48.380;10.892;2022-11-06T12:29:21;11.30;99.90
33741;DHT22;20065;48.380;10.892;2022-11-06T12:35:09;11.10;99.90
33741;DHT22;20065;48.380;10.892;2022-11-06T12:41:24;11.20;99.90
33741;DHT22;20065;48.380;10.892;2022-11-06T12:44:12;11.20;99.90
33741;DHT22;20065;48.380;10.892;2022-11-06T12:53:40;11.10;99.90
33741;DHT22;20065;48.380;10.892;2022-11-06T13:00:11;11.10;99.90
33741;DHT22;20065;48.380;10.892;2022-11-06T13:05:54;11.00;99.90
33741;DHT22;20065;48.380;10.892;2022-11-06T13:12:06;11.10;99.90
33741;DHT22;20065;48.380;10.892;2022-11-06T13:15:17;11.00;99.90
33741;DHT22;20065;48.380;10.892;2022-11-06T13:20:56;11.00;99.90
33741;DHT22;20065;48.380;10.892;2022-11-06T13:23:50;10.90;99.90
33741;DHT22;20065;48.380;10.892;2022-11-06T13:26:50;10.90;99.90
33741;DHT22;20065;48.380;10.892;2022-11-06T13:29:38;10.90;99.90
33741;DHT22;20065;48.380;10.892;2022-11-06T13:32:26;10.90;99.90
33741;DHT22;20065;48.380;10.892;2022-11-06T13:35:15;10.80;99.90
33741;DHT22;20065;48.380;10.892;2022-11-06T13:38:06;10.80;99.90
33741;DHT22;20065;48.380;10.892;2022-11-06T13:40:57;10.80;99.90
33741;DHT22;20065;48.380;10.892;2022-11-06T13:43:48;10.70;99.90
33741;DHT22;20065;48.380;10.892;2022-11-06T13:47:03;10.70;99.90
33741;DHT22;20065;48.380;10.892;2022-11-06T13:50:18;10.70;99.90
33741;DHT22;20065;48.380;10.892;2022-11-06T13:59:42;10.60;99.90
33741;DHT22;20065;48.380;10.892;2022-11-06T14:05:49;10.60;99.90
33741;DHT22;20065;48.380;10.892;2022-11-06T14:08:42;10.50;99.90
33741;DHT22;20065;48.380;10.892;2022-11-06T14:11:32;10.50;99.90
33741;DHT22;20065;48.380;10.892;2022-11-06T14:17:26;10.50;99.90
33741;DHT22;20065;48.380;10.892;2022-11-06T14:20:36;10.40;99.90
33741;DHT22;20065;48.380;10.892;2022-11-06T14:38:16;10.40;99.90
33741;DHT22;20065;48.380;10.892;2022-11-06T14:44:42;10.40;99.90
33741;DHT22;20065;48.380;10.892;2022-11-06T14:47:33;10.40;99.90
33741;DHT22;20065;48.380;10.892;2022-11-06T14:50:30;10.40;99.90
33741;DHT22;20065;48.380;10.892;2022-11-06T14:53:31;10.40;99.90
33741;DHT22;20065;48.380;10.892;2022-11-06T14:56:35;10.40;99.90
33741;DHT22;20065;48.380;10.892;2022-11-06T14:59:34;10.40;99.90
33741;DHT22;20065;48.380;10.892;2022-11-06T15:02:24;10.30;99.90
33741;DHT22;20065;48.380;10.892;2022-11-06T15:05:17;10.40;99.90
33741;DHT22;20065;48.380;10.892;2022-11-06T15:08:04;10.40;99.90
33741;DHT22;20065;48.380;10.892;2022-11-06T15:10:51;10.30;99.90
33741;DHT22;20065;48.380;10.892;2022-11-06T15:13:38;10.30;99.90
33741;DHT22;20065;48.380;10.892;2022-11-06T15:16:38;10.20;99.90
33741;DHT22;20065;48.380;10.892;2022-11-06T15:19:58;10.20;99.90
33741;DHT22;20065;48.380;10.892;2022-11-06T15:23:14;10.20;99.90
33741;DHT22;20065;48.380;10.892;2022-11-06T15:26:27;10.00;99.90
33741;DHT22;20065;48.380;10.892;2022-11-06T15:29:28;9.90;99.90
33741;DHT22;20065;48.380;10.892;2022-11-06T15:32:27;9.80;99.90
33741;DHT22;20065;48.380;10.892;2022-11-06T15:35:19;9.90;99.90
33741;DHT22;20065;48.380;10.892;2022-11-06T15:38:16;9.80;99.90
33741;DHT22;20065;48.380;10.892;2022-11-06T15:41:05;9.80;99.90
33741;DHT22;20065;48.380;10.892;2022-11-06T15:43:54;9.70;99.90
33741;DHT22;20065;48.380;10.892;2022-11-06T15:46:55;9.70;99.90
33741;DHT22;20065;48.380;10.892;2022-11-06T15:49:42;9.70;99.90
33741;DHT22;20065;48.380;10.892;2022-11-06T15:52:28;9.60;99.90
33741;DHT22;20065;48.380;10.892;2022-11-06T15:55:15;9.50;99.90
33741;DHT22;20065;48.380;10.892;2022-11-06T15:58:26;9.50;99.90
33741;DHT22;20065;48.380;10.892;2022-11-06T16:01:13;9.40;99.90
33741;DHT22;20065;48.380;10.892;2022-11-06T16:04:01;9.40;99.90
33741;DHT22;20065;48.380;10.892;2022-11-06T16:06:53;9.30;99.90
33741;DHT22;20065;48.380;10.892;2022-11-06T16:09:41;9.30;99.90
33741;DHT22;20065;48.380;10.892;2022-11-06T16:12:28;9.20;99.90
33741;DHT22;20065;48.380;10.892;2022-11-06T16:18:42;9.20;99.90
33741;DHT22;20065;48.380;10.892;2022-11-06T16:21:32;9.10;99.90
33741;DHT22;20065;48.380;10.892;2022-11-06T16:24:19;9.10;99.90
33741;DHT22;20065;48.380;10.892;2022-11-06T16:27:06;9.10;99.90
33741;DHT22;20065;48.380;10.892;2022-11-06T16:29:55;9.10;99.90
33741;DHT22;20065;48.380;10.892;2022-11-06T16:32:42;9.00;99.90
33741;DHT22;20065;48.380;10.892;2022-11-06T16:35:34;9.00;99.90
33741;DHT22;20065;48.380;10.892;2022-11-06T16:38:31;8.90;99.90
33741;DHT22;20065;48.380;10.892;2022-11-06T16:44:47;8.90;99.90
33741;DHT22;20065;48.380;10.892;2022-11-06T16:47:33;8.90;99.90
33741;DHT22;20065;48.380;10.892;2022-11-06T16:50:46;8.90;99.90
33741;DHT22;20065;48.380;10.892;2022-11-06T16:53:51;8.90;99.90
33741;DHT22;20065;48.380;10.892;2022-11-06T16:56:38;8.90;99.90
33741;DHT22;20065;48.380;10.892;2022-11-06T16:59:25;8.80;99.90
33741;DHT22;20065;48.380;10.892;2022-11-06T17:02:23;8.80;99.90
33741;DHT22;20065;48.380;10.892;2022-11-06T17:08:07;8.80;99.90
33741;DHT22;20065;48.380;10.892;2022-11-06T17:10:55;8.70;99.90
33741;DHT22;20065;48.380;10.892;2022-11-06T17:13:43;8.70;99.90
33741;DHT22;20065;48.380;10.892;2022-11-06T17:16:30;8.70;99.90
33741;DHT22;20065;48.380;10.892;2022-11-06T17:19:29;8.70;99.90
33741;DHT22;20065;48.380;10.892;2022-11-06T17:22:15;8.70;99.90
33741;DHT22;20065;48.380;10.892;2022-11-06T17:25:01;8.70;99.90
33741;DHT22;20065;48.380;10.892;2022-11-06T17:27:47;8.70;99.90
33741;DHT22;20065;48.380;10.892;2022-11-06T17:30:33;8.70;99.90
33741;DHT22;20065;48.380;10.892;2022-11-06T17:33:20;8.70;99.90
33741;DHT22;20065;48.380;10.892;2022-11-06T17:36:12;8.70;99.90
33741;DHT22;20065;48.380;10.892;2022-11-06T17:39:00;8.70;99.90
33741;DHT22;20065;48.380;10.892;2022-11-06T17:41:46;8.70;99.90
33741;DHT22;20065;48.380;10.892;2022-11-06T17:44:33;8.80;99.90
33741;DHT22;20065;48.380;10.892;2022-11-06T17:47:19;8.90;99.90
33741;DHT22;20065;48.380;10.892;2022-11-06T17:50:07;8.90;99.90
33741;DHT22;20065;48.380;10.892;2022-11-06T17:52:53;8.90;99.90
33741;DHT22;20065;48.380;10.892;2022-11-06T17:55:39;8.90;99.90
33741;DHT22;20065;48.380;10.892;2022-11-06T17:58:25;9.00;99.90
33741;DHT22;20065;48.380;10.892;2022-11-06T18:01:11;9.00;99.90
33741;DHT22;20065;48.380;10.892;2022-11-06T18:03:59;8.90;99.90
33741;DHT22;20065;48.380;10.892;2022-11-06T18:06:50;9.00;99.90
33741;DHT22;20065;48.380;10.892;2022-11-06T18:09:39;9.00;99.90
33741;DHT22;20065;48.380;10.892;2022-11-06T18:12:25;8.90;99.90
33741;DHT22;20065;48.380;10.892;2022-11-06T18:15:12;8.60;99.90
33741;DHT22;20065;48.380;10.892;2022-11-06T18:17:58;8.50;99.90
33741;DHT22;20065;48.380;10.892;2022-11-06T18:20:45;8.60;99.90
33741;DHT22;20065;48.380;10.892;2022-11-06T18:23:31;8.60;99.90
33741;DHT22;20065;48.380;10.892;2022-11-06T18:26:20;8.70;99.90
33741;DHT22;20065;48.380;10.892;2022-11-06T18:29:11;8.70;99.90
33741;DHT22;20065;48.380;10.892;2022-11-06T18:31:58;8.70;99.90
33741;DHT22;20065;48.380;10.892;2022-11-06T18:34:44;8.80;99.90
33741;DHT22;20065;48.380;10.892;2022-11-06T18:37:30;8.90;99.90
33741;DHT22;20065;48.380;10.892;2022-11-06T18:40:17;8.80;99.90
33741;DHT22;20065;48.380;10.892;2022-11-06T18:43:04;8.90;99.90
33741;DHT22;20065;48.380;10.892;2022-11-06T18:45:50;8.80;99.90
33741;DHT22;20065;48.380;10.892;2022-11-06T18:48:36;8.70;99.90
33741;DHT22;20065;48.380;10.892;2022-11-06T18:51:26;8.70;99.90
33741;DHT22;20065;48.380;10.892;2022-11-06T18:54:12;8.50;99.90
33741;DHT22;20065;48.380;10.892;2022-11-06T18:56:58;8.40;99.90
33741;DHT22;20065;48.380;10.892;2022-11-06T18:59:45;8.30;99.90
33741;DHT22;20065;48.380;10.892;2022-11-06T19:02:31;8.20;99.90
33741;DHT22;20065;48.380;10.892;2022-11-06T19:05:18;8.10;99.90
33741;DHT22;20065;48.380;10.892;2022-11-06T19:08:04;8.20;99.90
33741;DHT22;20065;48.380;10.892;2022-11-06T19:10:51;8.20;99.90
33741;DHT22;20065;48.380;10.892;2022-11-06T19:13:40;8.20;99.90
33741;DHT22;20065;48.380;10.892;2022-11-06T19:16:26;8.20;99.90
33741;DHT22;20065;48.380;10.892;2022-11-06T19:19:15;8.40;99.90
33741;DHT22;20065;48.380;10.892;2022-11-06T19:22:01;8.60;99.90
33741;DHT22;20065;48.380;10.892;2022-11-06T19:24:47;8.60;99.90
33741;DHT22;20065;48.380;10.892;2022-11-06T19:27:33;8.60;99.90
33741;DHT22;20065;48.380;10.892;2022-11-06T19:30:19;8.30;99.90
33741;DHT22;20065;48.380;10.892;2022-11-06T19:33:05;8.20;99.90
33741;DHT22;20065;48.380;10.892;2022-11-06T19:35:52;8.20;99.90
33741;DHT22;20065;48.380;10.892;2022-11-06T19:38:39;8.10;99.90
33741;DHT22;20065;48.380;10.892;2022-11-06T19:41:26;8.10;99.90
33741;DHT22;20065;48.380;10.892;2022-11-06T19:44:12;8.00;99.90
33741;DHT22;20065;48.380;10.892;2022-11-06T19:46:58;8.00;99.90
33741;DHT22;20065;48.380;10.892;2022-11-06T19:49:44;8.00;99.90
33741;DHT22;20065;48.380;10.892;2022-11-06T19:52:31;8.20;99.90
33741;DHT22;20065;48.380;10.892;2022-11-06T19:55:17;8.20;99.90
33741;DHT22;20065;48.380;10.892;2022-11-06T19:58:05;8.20;99.90